PSM weather

Portsmouth International at Pease Airport
Portsmouth, New Hampshire, United States

Public forecast

Using degrees Fahrenheit for public forecast. Weather courtesy of forecast.io.

METAR (pilot weather report)

Retrieved 2019/05/22 17:56 UTC (12 minutes ago):

KPSM 221756Z 10011G19KT 10SM FEW060 BKN250 19/03 A3015 RMK AO2A SLP212 T01890027 10198 20132 58001

TAF (pilot weather forecast)

Retrieved 2019/05/22 18:22 UTC (0 seconds ago):

TAF KPSM 221720Z 2218/2318 32010G17KT P6SM FEW080 BKN250 FM222200 19004KT P6SM SCT120 BKN250